Time;durP1;ratioP1;P1;durP2;ratioP2;P2;SDS_P1;SDS_P2;PMS_P1;PMS_P2;Temp;Humidity;BMP_temperature;BMP_pressure;BME280_temperature;BME280_humidity;BME280_pressure;Samples;Min_cycle;Max_cycle;Signal;HPM_P1;HPM_P2
2022/11/04 06:39:55;;;;;;;;;2.25;0.50;;;;;12.86;67.82;100160.31;3042870;22;46313;-85
2022/11/04 06:41:07;;;;;;;;;0.75;0.00;;;;;12.89;68.04;100161.94;3041543;22;45254;-86
2022/11/04 06:42:18;;;;;;;;;1.00;0.00;;;;;12.88;67.24;100160.25;3030543;22;47039;-86
2022/11/04 06:43:28;;;;;;;;;1.50;0.00;;;;;12.88;67.72;100160.25;3046590;22;45347;-87
2022/11/04 06:44:38;;;;;;;;;0.25;0.00;;;;;12.89;67.66;100164.59;3057203;22;45533;-86
2022/11/04 06:45:53;;;;;;;;;1.50;0.00;;;;;12.89;67.92;100161.94;3057097;22;45161;-86
2022/11/04 06:47:03;;;;;;;;;3.00;1.00;;;;;12.87;67.61;100164.66;3040913;22;47040;-89
2022/11/04 06:48:13;;;;;;;;;1.50;0.25;;;;;12.86;67.56;100155.06;3046237;22;45222;-86
2022/11/04 06:49:24;;;;;;;;;0.00;0.00;;;;;12.87;67.91;100164.66;3058088;22;45267;-86
2022/11/04 06:50:34;;;;;;;;;0.00;0.00;;;;;12.89;67.89;100175.97;3057576;22;44613;-86
2022/11/04 06:51:46;;;;;;;;;1.00;1.00;;;;;12.89;67.51;100167.22;3041678;22;47163;-86
2022/11/04 06:52:56;;;;;;;;;1.25;1.25;;;;;12.91;67.60;100175.91;3047178;22;45328;-87
2022/11/04 06:54:06;;;;;;;;;1.00;0.00;;;;;12.89;67.61;100173.34;3057920;22;45366;-86
2022/11/04 06:55:17;;;;;;;;;0.50;0.00;;;;;12.90;67.64;100179.47;3057349;22;45250;-87
2022/11/04 06:56:27;;;;;;;;;1.25;0.75;;;;;12.89;67.87;100178.59;3057243;22;45348;-87
2022/11/04 06:57:38;;;;;;;;;0.25;0.25;;;;;12.89;67.94;100172.50;3057111;22;45339;-88
2022/11/04 06:58:49;;;;;;;;;1.50;1.00;;;;;12.89;67.76;100175.13;3052539;22;46639;-87
2022/11/04 06:59:59;;;;;;;;;0.50;0.00;;;;;12.89;67.75;100172.50;3032221;22;44649;-87
2022/11/04 07:01:10;;;;;;;;;0.00;0.00;;;;;12.90;68.02;100174.19;3047008;22;45490;-87
2022/11/04 07:02:20;;;;;;;;;1.50;0.00;;;;;12.90;67.85;100172.41;3058989;22;45139;-87
2022/11/04 07:03:30;;;;;;;;;1.00;1.00;;;;;12.90;67.74;100179.47;3057096;22;46942;-87
2022/11/04 07:04:41;;;;;;;;;1.50;0.00;;;;;12.92;67.66;100180.22;3057734;22;45382;-88
2022/11/04 07:05:51;;;;;;;;;2.50;0.00;;;;;12.91;67.69;100173.28;3058700;22;45292;-87
2022/11/04 07:07:01;;;;;;;;;3.00;1.00;;;;;12.93;68.11;100180.19;3058776;22;45096;-87
2022/11/04 07:08:12;;;;;;;;;1.00;1.00;;;;;12.92;67.80;100175.81;3041944;22;47225;-87
2022/11/04 07:09:22;;;;;;;;;2.25;0.00;;;;;12.93;67.75;100180.19;3030298;22;45113;-87
2022/11/04 07:10:33;;;;;;;;;2.00;2.00;;;;;12.93;67.87;100174.03;3045424;22;45205;-86
2022/11/04 07:11:44;;;;;;;;;1.00;1.00;;;;;12.92;67.90;100178.47;3058290;22;45172;-86
2022/11/04 07:12:54;;;;;;;;;2.00;0.00;;;;;12.95;67.65;100188.00;3059154;22;45309;-86
2022/11/04 07:14:05;;;;;;;;;1.75;0.25;;;;;12.95;67.79;100182.72;3059314;22;44600;-87
2022/11/04 07:15:15;;;;;;;;;0.00;0.00;;;;;12.96;67.70;100188.84;3059276;22;46334;-86
2022/11/04 07:16:25;;;;;;;;;1.00;1.00;;;;;12.93;67.79;100180.19;3042762;22;45415;-87
2022/11/04 07:17:36;;;;;;;;;2.00;1.00;;;;;12.94;67.46;100181.00;3046451;22;47403;-86
2022/11/04 07:18:48;;;;;;;;;1.00;0.25;;;;;12.93;67.61;100181.94;3042886;22;45656;-86
2022/11/04 07:19:59;;;;;;;;;1.00;0.00;;;;;12.93;67.76;100185.44;3047132;22;47368;-87
2022/11/04 07:21:11;;;;;;;;;3.00;0.50;;;;;12.95;67.53;100195.91;3058154;22;45351;-87
2022/11/04 07:22:21;;;;;;;;;5.00;1.00;;;;;12.96;67.65;100188.84;3059123;22;45511;-87
2022/11/04 07:23:32;;;;;;;;;1.00;1.00;;;;;12.96;67.48;100195.00;3059487;22;45243;-87
2022/11/04 07:24:42;;;;;;;;;2.75;1.25;;;;;12.94;67.51;100196.81;3042332;22;47785;-86
2022/11/04 07:25:53;;;;;;;;;1.00;0.00;;;;;12.96;67.53;100192.34;3047941;22;45310;-86
2022/11/04 07:27:05;;;;;;;;;0.75;0.75;;;;;12.95;67.29;100193.28;3059691;22;45355;-87
2022/11/04 07:28:16;;;;;;;;;0.75;0.00;;;;;12.98;67.48;100202.81;3042980;22;45659;-87
2022/11/04 07:29:27;;;;;;;;;0.50;0.50;;;;;12.99;67.42;100197.44;3042943;22;47008;-86
2022/11/04 07:30:38;;;;;;;;;1.00;1.00;;;;;12.99;67.16;100204.53;3032617;22;45300;-86
2022/11/04 07:31:48;;;;;;;;;0.00;0.00;;;;;12.99;67.31;100207.16;3047332;22;47002;-87
2022/11/04 07:32:58;;;;;;;;;3.50;1.00;;;;;12.97;67.43;100207.22;3058821;22;44635;-87
2022/11/04 07:34:09;;;;;;;;;2.25;1.00;;;;;12.97;66.93;100204.59;3059035;22;46114;-88
2022/11/04 07:35:19;;;;;;;;;0.75;0.75;;;;;12.98;67.35;100210.72;3057302;22;45338;-87
2022/11/04 07:36:29;;;;;;;;;1.00;0.00;;;;;12.97;66.79;100212.50;3053940;22;48320;-87
2022/11/04 07:37:40;;;;;;;;;2.00;1.00;;;;;12.97;66.94;100217.78;3048135;22;44629;-83
2022/11/04 07:38:50;;;;;;;;;0.00;0.00;;;;;12.96;66.76;100220.50;3059762;22;45208;-83
2022/11/04 07:40:00;;;;;;;;;0.50;0.00;;;;;12.96;66.62;100215.22;3058022;22;45269;-81
2022/11/04 07:41:12;;;;;;;;;1.25;1.00;;;;;12.96;66.84;100226.66;3054070;22;47078;-85
2022/11/04 07:42:22;;;;;;;;;0.00;0.00;;;;;12.98;67.23;100224.78;3032741;22;44545;-86
2022/11/04 07:43:33;;;;;;;;;1.25;1.25;;;;;12.98;66.56;100232.69;3047925;22;46300;-83
2022/11/04 07:44:43;;;;;;;;;2.00;1.00;;;;;12.99;66.79;100231.75;3060095;22;45178;-82
2022/11/04 07:46:09;;;;;;;;;1.50;0.00;;;;;12.99;66.63;100237.00;3059296;22;46195;-88
2022/11/04 07:47:19;;;;;;;;;0.00;0.00;;;;;12.97;66.58;100238.88;3059868;22;44797;-86
2022/11/04 07:48:29;;;;;;;;;0.00;0.00;;;;;12.98;66.46;100248.53;3059294;22;45349;-85
2022/11/04 07:49:40;;;;;;;;;2.00;1.50;;;;;12.99;66.88;100244.94;3043432;22;45101;-86
2022/11/04 07:50:54;;;;;;;;;0.00;0.00;;;;;13.00;66.88;100249.28;3032287;22;46041;-87
2022/11/04 07:52:04;;;;;;;;;0.75;0.75;;;;;13.01;66.77;100250.97;3048801;22;45273;-87
2022/11/04 07:53:15;;;;;;;;;2.50;1.00;;;;;13.03;67.08;100254.41;3059726;22;45182;-87
2022/11/04 07:54:25;;;;;;;;;0.00;0.00;;;;;13.05;66.51;100249.03;3058978;22;45241;-86
2022/11/04 07:55:37;;;;;;;;;1.25;0.00;;;;;13.11;66.74;100255.81;3042504;22;47996;-87
2022/11/04 07:56:47;;;;;;;;;2.75;1.00;;;;;13.11;67.01;100259.28;3043272;22;44640;-87
2022/11/04 07:57:57;;;;;;;;;0.50;0.50;;;;;13.16;66.54;100259.06;3028597;22;46891;-84
2022/11/04 07:59:08;;;;;;;;;1.00;1.00;;;;;13.18;65.93;100256.34;3047259;22;45279;-87
2022/11/04 08:00:19;;;;;;;;;2.50;1.50;;;;;13.19;66.32;100264.16;3057600;22;47328;-85
2022/11/04 08:01:29;;;;;;;;;2.00;1.25;;;;;13.23;66.41;100265.72;3053573;22;45317;-87
2022/11/04 08:02:41;;;;;;;;;1.75;1.00;;;;;13.24;66.41;100264.78;3047753;22;46164;-87
2022/11/04 08:03:51;;;;;;;;;1.50;0.00;;;;;13.27;66.09;100261.97;3057425;22;45289;-88
2022/11/04 08:05:05;;;;;;;;;1.00;1.00;;;;;13.29;66.58;100267.19;3058853;22;45286;-87
2022/11/04 08:06:17;;;;;;;;;2.00;0.75;;;;;13.30;66.32;100266.25;3058046;22;45216;-87
2022/11/04 08:07:27;;;;;;;;;0.00;0.00;;;;;13.34;66.09;100266.94;3058662;22;46458;-87
2022/11/04 08:08:37;;;;;;;;;0.25;0.25;;;;;13.38;65.41;100273.78;3042117;22;45366;-87
2022/11/04 08:09:48;;;;;;;;;3.00;0.00;;;;;13.39;64.70;100270.19;3031332;22;47958;-88
2022/11/04 08:11:01;;;;;;;;;0.50;0.00;;;;;13.39;65.22;100278.97;3046902;22;45104;-87
2022/11/04 08:12:11;;;;;;;;;2.75;0.50;;;;;13.43;65.35;100278.81;3058819;22;45366;-90
2022/11/04 08:13:22;;;;;;;;;0.50;0.00;;;;;13.46;65.47;100282.13;3058493;22;45217;-89
2022/11/04 08:14:33;;;;;;;;;1.00;1.00;;;;;13.49;64.84;100276.69;3055997;22;47480;-87
2022/11/04 08:15:43;;;;;;;;;0.00;0.00;;;;;13.53;64.63;100284.47;3040931;22;45258;-88
2022/11/04 08:16:53;;;;;;;;;3.00;2.00;;;;;13.55;65.30;100282.59;3030633;22;47124;-89
2022/11/04 08:18:04;;;;;;;;;2.00;0.75;;;;;13.59;65.49;100289.44;3032103;22;45294;-88
2022/11/04 08:19:14;;;;;;;;;1.00;1.00;;;;;13.63;65.74;100283.03;3047228;22;46006;-88
2022/11/04 08:20:24;;;;;;;;;1.75;1.00;;;;;13.70;65.64;100287.06;3057987;22;44636;-88
2022/11/04 08:21:35;;;;;;;;;0.50;0.00;;;;;13.77;65.03;100294.66;3042233;22;46855;-88
2022/11/04 08:22:45;;;;;;;;;1.00;0.00;;;;;13.79;63.67;100288.38;3032017;22;45182;-88
2022/11/04 08:23:56;;;;;;;;;3.25;0.00;;;;;13.80;64.55;100290.06;3046804;22;47938;-88
2022/11/04 08:25:06;;;;;;;;;1.00;1.00;;;;;13.82;64.78;100293.50;3052785;22;45196;-87
2022/11/04 08:26:18;;;;;;;;;0.50;0.00;;;;;13.84;64.53;100293.41;3031930;22;47426;-87
2022/11/04 08:27:28;;;;;;;;;2.25;0.00;;;;;13.88;64.45;100292.28;3047249;22;45425;-87
2022/11/04 08:28:38;;;;;;;;;1.00;1.00;;;;;13.91;64.50;100292.13;3042868;22;47032;-89
2022/11/04 08:29:49;;;;;;;;;1.25;0.50;;;;;13.94;64.29;100296.41;3046476;22;45370;-87
2022/11/04 08:31:10;;;;;;;;;2.00;0.75;;;;;13.95;64.67;100293.66;3042782;22;46899;-87
2022/11/04 08:32:20;;;;;;;;;1.00;0.00;;;;;13.99;63.52;100298.78;3049651;22;45269;-89
2022/11/04 08:33:32;;;;;;;;;1.00;1.00;;;;;14.02;63.71;100303.91;3057120;22;46614;-88
2022/11/04 08:34:42;;;;;;;;;2.50;1.00;;;;;14.01;63.63;100300.41;3058419;22;45123;-87
2022/11/04 08:35:55;;;;;;;;;1.00;1.00;;;;;14.02;63.85;100307.41;3059358;22;45224;-90
2022/11/04 08:37:05;;;;;;;;;0.00;0.00;;;;;14.04;63.92;100307.31;3041892;22;45178;-89
2022/11/04 08:38:15;;;;;;;;;0.25;0.00;;;;;14.05;64.34;100301.13;3030528;22;47557;-87
2022/11/04 08:39:26;;;;;;;;;0.00;0.00;;;;;14.07;63.28;100315.09;3030582;22;45654;-88
2022/11/04 08:40:36;;;;;;;;;2.00;0.00;;;;;14.09;62.67;100312.34;3042029;22;47957;-88
2022/11/04 08:41:47;;;;;;;;;0.00;0.00;;;;;14.06;63.57;100313.38;3047784;22;44613;-87
2022/11/04 08:42:58;;;;;;;;;3.00;0.00;;;;;14.06;63.46;100316.88;3058782;22;45438;-87
2022/11/04 08:44:10;;;;;;;;;2.75;0.25;;;;;14.10;63.30;100325.47;3059563;22;45188;-87
2022/11/04 08:45:21;;;;;;;;;2.25;0.00;;;;;14.12;63.64;100315.69;3058812;22;46209;-87
2022/11/04 08:46:35;;;;;;;;;3.00;0.00;;;;;14.18;62.76;100319.78;3042940;22;45124;-87
2022/11/04 08:47:45;;;;;;;;;1.25;0.00;;;;;14.20;63.49;100327.63;3042368;22;47226;-87
2022/11/04 08:48:56;;;;;;;;;0.00;0.00;;;;;14.22;63.34;100333.69;3047106;22;44589;-86
2022/11/04 08:50:06;;;;;;;;;1.00;0.00;;;;;14.25;63.52;100334.34;3059363;22;46003;-87
2022/11/04 08:51:23;;;;;;;;;0.50;0.00;;;;;14.29;63.27;100342.97;3057462;22;45229;-88
2022/11/04 08:52:34;;;;;;;;;0.00;0.00;;;;;14.29;62.94;100337.69;3042426;22;47177;-89
2022/11/04 08:53:44;;;;;;;;;1.00;1.00;;;;;14.29;62.61;100340.34;3046554;22;45337;-88
2022/11/04 08:54:54;;;;;;;;;0.00;0.00;;;;;14.32;63.18;100347.25;3041220;22;48049;-88
2022/11/04 08:56:33;;;;;;;;;0.00;0.00;;;;;14.34;63.13;100346.22;3044838;22;45565;-89
2022/11/04 08:57:43;;;;;;;;;0.00;0.00;;;;;14.35;62.61;100345.28;3038851;22;47066;-87
2022/11/04 08:58:55;;;;;;;;;2.00;0.00;;;;;14.35;62.88;100347.91;3031524;22;45224;-86
2022/11/04 09:00:06;;;;;;;;;0.00;0.00;;;;;14.37;62.95;100348.69;3039646;22;47762;-90
2022/11/04 09:01:17;;;;;;;;;0.00;0.00;;;;;14.39;62.84;100354.75;3047994;22;44755;-90
2022/11/04 09:02:27;;;;;;;;;1.00;0.50;;;;;14.38;61.60;100347.75;3058552;22;45345;-88
2022/11/04 09:03:40;;;;;;;;;0.00;0.00;;;;;14.40;62.27;100355.59;3057300;22;45233;-89
2022/11/04 09:04:50;;;;;;;;;0.00;0.00;;;;;14.38;62.40;100357.47;3042807;22;47874;-89
2022/11/04 09:06:01;;;;;;;;;1.75;0.75;;;;;14.39;62.56;100357.41;3031490;22;44739;-89
2022/11/04 09:07:11;;;;;;;;;0.00;0.00;;;;;14.39;61.75;100362.69;3045871;22;46967;-87
2022/11/04 09:08:21;;;;;;;;;0.50;0.00;;;;;14.38;62.35;100358.31;3058864;22;45158;-87
2022/11/04 09:09:33;;;;;;;;;2.00;1.00;;;;;14.39;62.22;100375.06;3058528;22;45200;-88
2022/11/04 09:10:44;;;;;;;;;0.00;0.00;;;;;14.36;62.18;100368.13;3058042;22;45264;-89
2022/11/04 09:11:55;;;;;;;;;0.25;0.00;;;;;14.36;62.49;100369.91;3056700;22;47494;-88
2022/11/04 09:13:06;;;;;;;;;1.50;0.25;;;;;14.32;61.56;100366.56;3056378;22;45340;-88
2022/11/04 09:14:17;;;;;;;;;0.00;0.00;;;;;14.31;61.37;100367.53;3056610;22;45269;-88
2022/11/04 09:15:27;;;;;;;;;1.25;0.00;;;;;14.29;61.61;100374.69;3059301;22;45249;-88
2022/11/04 09:16:39;;;;;;;;;0.00;0.00;;;;;14.27;61.92;100368.66;3042388;22;46966;-88
2022/11/04 09:17:49;;;;;;;;;1.00;0.00;;;;;14.23;61.46;100378.53;3042741;22;45291;-89
2022/11/04 09:19:00;;;;;;;;;0.00;0.00;;;;;14.21;61.09;100385.69;3031678;22;46837;-87
2022/11/04 09:20:11;;;;;;;;;0.50;0.50;;;;;14.18;61.43;100381.41;3042716;22;45196;-88
2022/11/04 09:21:21;;;;;;;;;1.75;1.00;;;;;14.16;59.74;100380.66;3047719;22;46017;-88
2022/11/04 09:22:32;;;;;;;;;2.00;0.00;;;;;14.16;61.16;100380.66;3042314;22;45255;-87
2022/11/04 09:23:42;;;;;;;;;0.00;0.00;;;;;14.11;60.72;100385.31;3032017;22;47430;-88
2022/11/04 09:24:52;;;;;;;;;1.00;1.00;;;;;14.08;60.97;100382.84;3047151;22;45128;-88
2022/11/04 09:26:09;;;;;;;;;1.50;1.00;;;;;14.07;60.55;100383.78;3059081;22;45172;-88
2022/11/04 09:27:20;;;;;;;;;1.00;0.25;;;;;14.06;60.78;100384.72;3042966;22;45362;-87
2022/11/04 09:28:30;;;;;;;;;0.50;0.00;;;;;14.04;60.46;100382.16;3047212;22;45760;-87
2022/11/04 09:29:40;;;;;;;;;0.00;0.00;;;;;14.04;60.94;100386.59;3057071;22;45345;-86
2022/11/04 09:30:51;;;;;;;;;5.00;0.50;;;;;14.04;61.20;100384.81;3057726;22;45562;-87
2022/11/04 09:32:02;;;;;;;;;0.50;0.00;;;;;14.07;61.77;100391.72;3059307;22;45086;-88
2022/11/04 09:33:13;;;;;;;;;0.25;0.00;;;;;14.11;61.35;100397.69;3041092;22;47346;-87
2022/11/04 09:34:23;;;;;;;;;0.25;0.25;;;;;14.16;61.39;100393.88;3046678;22;44644;-88
2022/11/04 09:35:33;;;;;;;;;1.00;0.00;;;;;14.23;61.55;100401.44;3059388;22;45225;-89
2022/11/04 09:36:45;;;;;;;;;0.75;0.00;;;;;14.29;61.82;100402.00;3042612;22;45184;-88
2022/11/04 09:37:58;;;;;;;;;1.00;1.00;;;;;14.37;61.45;100400.72;3031954;22;47592;-89
2022/11/04 09:39:09;;;;;;;;;1.25;0.25;;;;;14.39;61.11;100397.06;3045589;22;45601;-89
2022/11/04 09:40:23;;;;;;;;;0.00;0.00;;;;;14.46;61.36;100402.84;3041037;22;45982;-88
2022/11/04 09:42:16;;;;;;;;;0.00;0.00;;;;;14.52;60.23;100401.66;3031000;22;45152;-86
2022/11/04 09:43:31;;;;;;;;;1.75;1.00;;;;;14.49;60.24;100412.41;3024457;22;47292;-89
2022/11/04 09:45:00;;;;;;;;;0.50;0.00;;;;;14.40;59.32;100406.69;3047205;22;45306;-88
2022/11/04 09:46:12;;;;;;;;;0.00;0.00;;;;;14.33;59.39;100410.59;3058446;22;45725;-86
2022/11/04 09:47:24;;;;;;;;;2.00;1.00;;;;;14.29;60.18;100414.34;3059246;22;45127;-86
2022/11/04 09:48:49;;;;;;;;;0.00;0.00;;;;;14.26;59.95;100419.78;3057726;22;47424;-86
2022/11/04 09:50:00;;;;;;;;;1.00;0.00;;;;;14.27;59.68;100424.16;3058474;22;45293;-86
2022/11/04 09:51:12;;;;;;;;;0.00;0.00;;;;;14.25;59.99;100426.88;3057296;22;47110;-86
2022/11/04 09:52:31;;;;;;;;;1.00;0.00;;;;;14.24;59.39;100421.69;3056904;22;45193;-87
2022/11/04 09:53:57;;;;;;;;;0.00;0.00;;;;;14.23;60.55;100423.47;3057410;22;47520;-86
2022/11/04 09:55:14;;;;;;;;;0.00;0.00;;;;;14.25;59.89;100426.00;3058262;22;45380;-86
2022/11/04 09:56:31;;;;;;;;;1.00;0.00;;;;;14.26;60.00;100433.00;3058658;22;45513;-88
2022/11/04 09:57:41;;;;;;;;;0.00;0.00;;;;;14.25;59.57;100428.66;3040994;22;45278;-86
2022/11/04 09:58:52;;;;;;;;;0.25;0.00;;;;;14.23;59.75;100434.03;3030864;22;47901;-87
2022/11/04 10:00:04;;;;;;;;;0.00;0.00;;;;;14.20;59.51;100441.28;3046998;22;44620;-88
2022/11/04 10:01:17;;;;;;;;;0.50;0.50;;;;;14.16;59.49;100445.88;3057896;22;47905;-87
2022/11/04 10:02:54;;;;;;;;;2.00;0.00;;;;;14.07;58.85;100440.13;3042152;22;44776;-89
2022/11/04 10:04:13;;;;;;;;;1.00;0.00;;;;;14.02;59.81;100449.25;3036342;22;48344;-86
2022/11/04 10:05:52;;;;;;;;;1.00;1.00;;;;;13.94;60.13;100455.78;3049682;22;45262;-88
2022/11/04 10:07:13;;;;;;;;;2.25;0.00;;;;;13.90;59.36;100454.22;3000013;22;45343;-88
2022/11/04 10:08:50;;;;;;;;;1.00;1.00;;;;;13.81;59.79;100457.34;3039956;22;45322;-87
2022/11/04 10:10:28;;;;;;;;;1.25;0.00;;;;;13.79;60.89;100464.47;3052459;22;46324;-87
2022/11/04 10:11:52;;;;;;;;;2.00;0.00;;;;;13.71;61.36;100471.00;3058997;22;44583;-90
2022/11/04 10:13:11;;;;;;;;;1.25;1.25;;;;;13.64;62.11;100472.25;3042165;22;47624;-88
2022/11/04 10:14:57;;;;;;;;;0.00;0.00;;;;;13.58;62.51;100470.78;3033591;22;44687;-88
2022/11/04 10:16:31;;;;;;;;;1.00;1.00;;;;;13.58;62.54;100488.44;3055574;22;45180;-88
2022/11/04 10:17:58;;;;;;;;;1.75;1.00;;;;;13.56;62.68;100488.47;3058697;22;45238;-88
2022/11/04 10:19:47;;;;;;;;;1.00;1.00;;;;;13.55;62.08;100486.75;3042025;22;47602;-88
2022/11/04 10:21:03;;;;;;;;;5.50;1.75;;;;;13.50;62.14;100494.06;3035093;22;45437;-87
2022/11/04 10:22:55;;;;;;;;;0.75;0.75;;;;;13.47;62.42;100492.41;3043461;22;46022;-87
2022/11/04 10:24:06;;;;;;;;;2.25;1.00;;;;;13.47;62.24;100499.47;2996373;22;44802;-87
2022/11/04 10:25:22;;;;;;;;;2.25;1.00;;;;;13.45;62.71;100498.69;2981111;23;46886;-87
2022/11/04 10:26:40;;;;;;;;;1.00;1.00;;;;;13.44;61.92;100502.25;3028105;22;45266;-86
2022/11/04 10:27:51;;;;;;;;;0.00;0.00;;;;;13.39;61.97;100502.47;3040316;22;47043;-88
2022/11/04 10:29:05;;;;;;;;;1.00;1.00;;;;;13.36;62.37;100514.03;3030358;22;45185;-87
2022/11/04 10:30:21;;;;;;;;;1.25;0.75;;;;;13.35;62.44;100517.63;3047052;22;45388;-87
2022/11/04 10:31:37;;;;;;;;;1.00;1.00;;;;;13.32;61.77;100519.53;3057237;22;45452;-88
2022/11/04 10:33:00;;;;;;;;;1.00;0.00;;;;;13.32;62.02;100522.19;3041750;22;47220;-86
2022/11/04 10:34:31;;;;;;;;;0.25;0.25;;;;;13.26;62.58;100524.19;3032714;22;45419;-87
2022/11/04 10:35:48;;;;;;;;;1.75;1.50;;;;;13.24;62.43;100523.41;3050549;22;46117;-87
2022/11/04 10:36:58;;;;;;;;;3.00;2.00;;;;;13.23;62.37;100532.28;3058513;22;45221;-87
2022/11/04 10:38:14;;;;;;;;;4.25;1.00;;;;;13.23;61.69;100529.63;3041358;22;48075;-87
2022/11/04 10:39:29;;;;;;;;;2.00;1.00;;;;;13.21;62.38;100531.47;3041341;22;45165;-87
2022/11/04 10:40:41;;;;;;;;;2.00;2.00;;;;;13.19;62.31;100532.47;3031318;22;48349;-87
2022/11/04 10:41:52;;;;;;;;;1.50;0.25;;;;;13.17;62.38;100535.19;3031809;22;45180;-88
2022/11/04 10:43:09;;;;;;;;;0.25;0.25;;;;;13.16;62.26;100546.69;3045631;22;45271;-88
2022/11/04 10:44:24;;;;;;;;;1.00;1.00;;;;;13.14;61.80;100544.09;3058220;22;44779;-86
2022/11/04 10:45:47;;;;;;;;;1.00;1.00;;;;;13.14;62.06;100552.03;3056562;22;47340;-88
2022/11/04 10:47:34;;;;;;;;;1.75;1.00;;;;;13.14;62.02;100548.53;3042272;22;45314;-88
2022/11/04 10:49:04;;;;;;;;;0.00;0.00;;;;;13.12;62.20;100553.03;3038510;22;48174;-88
2022/11/04 10:50:27;;;;;;;;;1.00;1.00;;;;;13.14;61.91;100553.78;3050031;22;44605;-88
2022/11/04 10:51:37;;;;;;;;;1.00;1.00;;;;;13.13;62.24;100560.03;3041854;22;47078;-89
2022/11/04 10:52:48;;;;;;;;;1.00;0.00;;;;;13.16;62.48;100559.88;3046121;22;44721;-88
2022/11/04 10:54:00;;;;;;;;;1.25;1.25;;;;;13.16;61.95;100562.53;3041413;22;46616;-87
2022/11/04 10:55:38;;;;;;;;;2.50;1.00;;;;;13.19;62.01;100564.13;3047215;22;45264;-87
2022/11/04 10:56:54;;;;;;;;;1.00;1.00;;;;;13.20;61.77;100572.00;3057907;22;45412;-88
2022/11/04 10:58:16;;;;;;;;;2.25;2.00;;;;;13.19;61.15;100558.84;3057517;22;45218;-87
2022/11/04 10:59:48;;;;;;;;;1.00;1.00;;;;;13.23;61.46;100560.44;3057201;22;47361;-88
2022/11/04 11:00:59;;;;;;;;;2.00;1.00;;;;;13.26;61.51;100569.06;3040837;22;44720;-89
2022/11/04 11:02:09;;;;;;;;;1.50;0.75;;;;;13.29;61.73;100565.41;3045781;22;45677;-88
2022/11/04 11:03:30;;;;;;;;;3.00;2.00;;;;;13.36;61.48;100564.19;3041659;22;45590;-88
2022/11/04 11:04:43;;;;;;;;;4.00;2.00;;;;;13.46;60.99;100582.22;3047831;22;45387;-87
2022/11/04 11:06:10;;;;;;;;;1.25;1.25;;;;;13.53;60.81;100573.09;3058630;22;44613;-89
2022/11/04 11:07:34;;;;;;;;;3.00;1.00;;;;;13.60;59.89;100574.56;3041863;22;47629;-87
2022/11/04 11:08:45;;;;;;;;;3.00;1.00;;;;;13.70;59.29;100580.22;3050136;22;45219;-86
2022/11/04 11:10:00;;;;;;;;;1.00;1.00;;;;;13.73;59.66;100585.34;3041068;22;47175;-87
2022/11/04 11:11:13;;;;;;;;;1.25;1.00;;;;;13.72;59.07;100572.25;3047031;22;44727;-88
2022/11/04 11:12:29;;;;;;;;;1.25;1.00;;;;;13.71;59.11;100581.94;3040618;22;47893;-87
2022/11/04 11:13:45;;;;;;;;;1.75;1.75;;;;;13.72;59.85;100588.94;3032092;22;45251;-88
2022/11/04 11:14:57;;;;;;;;;2.50;1.00;;;;;13.70;59.04;100584.66;3032134;22;47196;-88
2022/11/04 11:16:24;;;;;;;;;2.00;1.00;;;;;13.64;58.29;100588.47;3031027;22;44646;-88
2022/11/04 11:17:37;;;;;;;;;0.00;0.00;;;;;13.62;59.76;100587.69;3049229;22;48318;-86
2022/11/04 11:19:10;;;;;;;;;2.00;0.00;;;;;13.60;58.58;100594.81;3041630;22;44653;-88
2022/11/04 11:20:22;;;;;;;;;1.00;1.00;;;;;13.57;58.76;100590.53;3036253;22;46274;-86
2022/11/04 11:21:47;;;;;;;;;1.75;1.50;;;;;13.57;59.08;100600.25;3041135;22;45235;-88
2022/11/04 11:23:00;;;;;;;;;0.25;0.25;;;;;13.51;58.59;100601.34;3033681;22;48489;-89
2022/11/04 11:24:29;;;;;;;;;0.25;0.25;;;;;13.52;58.39;100603.06;3030930;22;44705;-87
2022/11/04 11:25:49;;;;;;;;;0.50;0.50;;;;;13.50;58.91;100600.53;3049855;22;46283;-88
2022/11/04 11:27:11;;;;;;;;;2.00;0.00;;;;;13.49;58.83;100612.00;3054368;22;45668;-88
2022/11/04 11:28:24;;;;;;;;;2.00;1.00;;;;;13.48;58.88;100601.53;3040759;22;47184;-88
2022/11/04 11:29:39;;;;;;;;;0.75;0.75;;;;;13.46;59.23;100613.91;3046821;22;45262;-90
2022/11/04 11:30:58;;;;;;;;;0.00;0.00;;;;;13.46;58.28;100609.50;3056685;22;45393;-86
2022/11/04 11:32:29;;;;;;;;;0.00;0.00;;;;;13.49;58.98;100614.63;3056581;22;45412;-87
2022/11/04 11:33:47;;;;;;;;;0.00;0.00;;;;;13.50;58.51;100608.44;3058367;22;45381;-88
2022/11/04 11:35:00;;;;;;;;;1.75;0.00;;;;;13.54;58.85;100610.91;3055874;22;44724;-88
2022/11/04 11:36:22;;;;;;;;;0.75;0.75;;;;;13.57;58.33;100611.66;3051654;22;48160;-87
2022/11/04 11:37:32;;;;;;;;;3.75;1.00;;;;;13.61;58.16;100610.59;3048277;22;45250;-88
2022/11/04 11:39:12;;;;;;;;;1.25;1.00;;;;;13.70;59.15;100606.63;3056463;22;45632;-87
2022/11/04 11:40:30;;;;;;;;;1.00;1.00;;;;;13.79;58.75;100609.78;3041212;22;45248;-87
2022/11/04 11:42:06;;;;;;;;;1.50;1.50;;;;;13.86;58.42;100616.47;3046617;22;45382;-87
2022/11/04 11:43:27;;;;;;;;;0.50;0.50;;;;;13.94;58.64;100614.31;3056290;22;44883;-88
2022/11/04 11:44:45;;;;;;;;;0.25;0.25;;;;;14.00;59.01;100618.41;3056982;22;48331;-88
2022/11/04 11:45:58;;;;;;;;;2.75;2.00;;;;;14.04;58.04;100611.22;3049028;22;45187;-88
2022/11/04 11:47:41;;;;;;;;;2.50;1.00;;;;;14.05;57.58;100620.84;3046055;22;45349;-88
2022/11/04 11:48:53;;;;;;;;;1.00;1.00;;;;;14.06;58.06;100622.56;3055620;22;44680;-88
2022/11/04 11:50:17;;;;;;;;;2.00;2.00;;;;;14.09;58.40;100621.53;3040806;22;47297;-88
2022/11/04 11:51:32;;;;;;;;;2.00;0.75;;;;;14.06;57.02;100625.19;3049394;22;45412;-88
2022/11/04 11:52:44;;;;;;;;;2.75;1.00;;;;;14.06;57.64;100627.84;3040426;22;47269;-87
2022/11/04 11:54:04;;;;;;;;;0.25;0.25;;;;;14.07;56.91;100630.38;3046183;22;45381;-87
2022/11/04 11:55:23;;;;;;;;;1.00;0.00;;;;;14.12;57.84;100635.47;3056325;22;45593;-89
2022/11/04 11:56:42;;;;;;;;;0.00;0.00;;;;;14.17;57.13;100644.00;3057799;22;44632;-87
2022/11/04 11:58:30;;;;;;;;;0.75;0.75;;;;;14.25;56.58;100632.19;3057519;22;47145;-85
2022/11/04 12:00:00;;;;;;;;;2.00;0.00;;;;;14.31;56.05;100645.13;3042010;22;45170;-87
2022/11/04 12:01:17;;;;;;;;;2.75;1.00;;;;;14.39;56.50;100640.31;3035946;22;48109;-87
2022/11/04 12:02:40;;;;;;;;;3.00;0.00;;;;;14.42;56.73;100649.00;3048504;22;45653;-87
2022/11/04 12:03:50;;;;;;;;;3.75;1.00;;;;;14.45;57.23;100648.84;3059119;22;45391;-87
2022/11/04 12:05:01;;;;;;;;;1.25;1.00;;;;;14.46;56.74;100647.91;3042756;22;45298;-87
2022/11/04 12:06:26;;;;;;;;;1.25;0.75;;;;;14.48;56.40;100659.25;3045267;22;47167;-89
2022/11/04 12:07:51;;;;;;;;;2.00;2.00;;;;;14.48;56.80;100660.13;3043121;22;45424;-86
2022/11/04 12:09:17;;;;;;;;;1.50;1.00;;;;;14.47;55.88;100668.97;3050494;22;46231;-86
2022/11/04 12:11:00;;;;;;;;;0.50;0.50;;;;;14.47;56.44;100670.78;3042540;22;45294;-88
2022/11/04 12:12:25;;;;;;;;;0.50;0.50;;;;;14.44;56.36;100665.66;3030555;22;48292;-87
2022/11/04 12:14:06;;;;;;;;;1.50;1.00;;;;;14.34;56.64;100683.75;3034947;22;45200;-86
2022/11/04 12:15:22;;;;;;;;;0.75;0.75;;;;;14.34;57.21;100681.13;2982787;22;47085;-87
2022/11/04 12:16:49;;;;;;;;;1.00;1.00;;;;;14.33;57.48;100692.63;3048874;22;45195;-88
2022/11/04 12:18:03;;;;;;;;;1.00;1.00;;;;;14.29;57.68;100698.06;3041812;22;48036;-87
2022/11/04 12:19:20;;;;;;;;;2.00;0.00;;;;;14.28;57.32;100687.56;3032831;22;44585;-86
2022/11/04 12:20:59;;;;;;;;;1.25;0.75;;;;;14.27;57.61;100699.91;3048188;22;47018;-88
2022/11/04 12:22:29;;;;;;;;;3.25;0.00;;;;;14.29;57.65;100697.22;3053652;22;45803;-87
2022/11/04 12:23:52;;;;;;;;;1.00;1.00;;;;;14.28;57.68;100698.13;3059448;22;46451;-86
2022/11/04 12:25:35;;;;;;;;;1.25;0.50;;;;;14.26;58.12;100708.78;3058641;22;45115;-88
2022/11/04 12:26:54;;;;;;;;;2.00;1.00;;;;;14.24;58.57;100705.38;3042187;22;47792;-88
2022/11/04 12:28:31;;;;;;;;;1.50;0.25;;;;;14.21;58.62;100712.59;3049489;22;45270;-87
2022/11/04 12:30:11;;;;;;;;;1.00;0.00;;;;;14.18;58.85;100719.75;3056668;22;47917;-88
2022/11/04 12:31:50;;;;;;;;;0.00;0.00;;;;;14.15;58.61;100725.16;3047104;22;44585;-88
2022/11/04 12:33:36;;;;;;;;;0.25;0.00;;;;;14.11;59.06;100725.38;3037989;22;47269;-89